createdAt,value
2023-04-26T00:00:44.341Z,3.37
2023-04-26T00:04:56.244Z,3.10
2023-04-26T00:08:59.232Z,3.50
2023-04-26T00:13:04.113Z,3.03
2023-04-26T00:17:06.761Z,3.10
2023-04-26T00:21:09.482Z,3.30
2023-04-26T00:25:12.603Z,3.33
2023-04-26T00:29:16.991Z,3.10
2023-04-26T00:33:19.650Z,3.10
2023-04-26T00:37:23.310Z,3.63
2023-04-26T00:41:28.561Z,3.30
2023-04-26T00:45:32.881Z,3.30
2023-04-26T00:49:36.137Z,3.20
2023-04-26T00:53:39.146Z,3.07
2023-04-26T00:57:42.002Z,3.07
2023-04-26T01:01:46.320Z,3.20
2023-04-26T01:05:49.569Z,3.37
2023-04-26T01:09:52.871Z,3.10
2023-04-26T01:13:55.989Z,3.27
2023-04-26T01:18:00.385Z,2.90
2023-04-26T01:22:03.141Z,3.60
2023-04-26T01:26:07.222Z,3.10
2023-04-26T01:30:11.000Z,3.03
2023-04-26T01:34:13.959Z,3.07
2023-04-26T01:38:17.941Z,3.33
2023-04-26T01:42:22.087Z,3.40
2023-04-26T01:46:25.090Z,3.20
2023-04-26T01:50:30.844Z,3.50
2023-04-26T01:54:33.596Z,3.60
2023-04-26T01:58:37.633Z,3.50
2023-04-26T02:02:40.766Z,3.23
2023-04-26T02:06:43.538Z,3.87
2023-04-26T02:10:46.525Z,4.07
2023-04-26T02:14:51.261Z,3.27
2023-04-26T02:18:55.722Z,3.33
2023-04-26T02:22:58.394Z,3.63
2023-04-26T02:27:03.832Z,3.50
2023-04-26T02:31:08.200Z,3.47
2023-04-26T02:35:10.956Z,3.40
2023-04-26T02:39:15.644Z,3.20
2023-04-26T02:43:18.425Z,3.23
2023-04-26T02:47:22.499Z,3.17
2023-04-26T02:51:25.627Z,3.77
2023-04-26T02:55:28.332Z,3.77
2023-04-26T02:59:31.422Z,3.53
2023-04-26T03:03:37.348Z,3.83
2023-04-26T03:07:40.545Z,3.80
2023-04-26T03:11:43.446Z,3.77
2023-04-26T03:15:48.376Z,4.00
2023-04-26T03:19:53.590Z,3.90
2023-04-26T03:23:56.340Z,4.00
2023-04-26T03:27:59.037Z,4.33
2023-04-26T03:32:01.880Z,4.50
2023-04-26T03:36:09.124Z,4.07
2023-04-26T03:40:13.366Z,4.00
2023-04-26T03:44:16.489Z,4.37
2023-04-26T03:48:19.324Z,4.23
2023-04-26T03:52:23.734Z,4.40
2023-04-26T03:56:28.467Z,4.63
2023-04-26T04:00:31.146Z,4.33
2023-04-26T04:04:34.003Z,4.60
2023-04-26T04:08:38.719Z,4.77
2023-04-26T04:12:41.767Z,4.43
2023-04-26T04:16:44.490Z,4.30
2023-04-26T04:20:47.454Z,4.63
2023-04-26T04:24:51.914Z,4.90
2023-04-26T04:28:55.170Z,5.00
2023-04-26T04:32:59.297Z,4.50
2023-04-26T04:37:02.186Z,4.97
2023-04-26T04:41:08.410Z,5.30
2023-04-26T04:45:11.875Z,5.10
2023-04-26T04:49:14.950Z,4.87
2023-04-26T04:53:17.666Z,4.70
2023-04-26T04:57:23.255Z,4.20
2023-04-26T05:01:26.054Z,4.23
2023-04-26T05:05:28.838Z,4.87
2023-04-26T05:09:32.069Z,4.40
2023-04-26T05:13:36.566Z,4.37
2023-04-26T05:17:39.393Z,4.60
2023-04-26T05:21:42.334Z,4.23
2023-04-26T05:25:45.377Z,4.63
2023-04-26T05:29:49.937Z,4.13
2023-04-26T05:33:53.239Z,3.67
2023-04-26T05:37:56.312Z,4.03
2023-04-26T05:41:59.035Z,4.03
2023-04-26T05:46:03.408Z,3.50
2023-04-26T05:50:07.194Z,3.40
2023-04-26T05:54:09.927Z,3.67
2023-04-26T05:58:12.801Z,3.50
2023-04-26T06:02:17.777Z,3.40
2023-04-26T06:06:20.638Z,3.60
2023-04-26T06:10:26.642Z,3.23
2023-04-26T06:14:30.814Z,3.10
2023-04-26T06:18:35.532Z,3.37
2023-04-26T06:22:38.638Z,2.50
2023-04-26T06:26:41.720Z,2.70
2023-04-26T06:30:44.698Z,2.40
2023-04-26T06:34:48.874Z,2.57
2023-04-26T06:38:51.895Z,2.30
2023-04-26T06:42:55.647Z,1.97
2023-04-26T06:46:58.681Z,1.93
2023-04-26T06:51:07.930Z,2.07
2023-04-26T06:55:11.594Z,1.77
2023-04-26T06:59:14.551Z,1.67
2023-04-26T07:03:17.374Z,1.90
2023-04-26T07:07:22.014Z,2.17
2023-04-26T07:11:26.259Z,1.80
2023-04-26T07:15:29.608Z,1.90
2023-04-26T07:19:32.601Z,1.87
2023-04-26T07:23:37.002Z,1.90
2023-04-26T07:27:40.760Z,1.90
2023-04-26T07:31:44.263Z,1.50
2023-04-26T07:35:47.266Z,1.80
2023-04-26T07:39:51.603Z,1.60
2023-04-26T07:43:54.588Z,1.77
2023-04-26T07:47:59.579Z,1.60
2023-04-26T07:52:02.556Z,1.70
2023-04-26T07:56:08.015Z,1.80
2023-04-26T08:00:12.237Z,1.60
2023-04-26T08:04:17.796Z,1.70
2023-04-26T08:08:23.760Z,1.83
2023-04-26T08:12:27.845Z,1.50
2023-04-26T08:16:31.071Z,1.47
2023-04-26T08:20:33.802Z,1.50
2023-04-26T08:24:36.537Z,1.60
2023-04-26T08:28:41.082Z,1.63
2023-04-26T08:32:44.086Z,1.40
2023-04-26T08:36:49.458Z,1.30
2023-04-26T08:40:52.641Z,1.70
2023-04-26T08:44:56.811Z,1.60
2023-04-26T08:49:07.163Z,1.97
2023-04-26T08:53:11.152Z,1.77
2023-04-26T08:57:13.984Z,1.30
2023-04-26T09:01:18.431Z,1.30
2023-04-26T09:05:23.693Z,1.63
2023-04-26T09:09:29.549Z,1.50
2023-04-26T09:13:32.794Z,1.87
2023-04-26T09:17:38.341Z,1.53
2023-04-26T09:21:44.262Z,1.87
2023-04-26T09:25:46.936Z,1.40
2023-04-26T09:30:00.618Z,1.87
2023-04-26T09:34:04.687Z,1.80
2023-04-26T09:38:12.588Z,1.40
2023-04-26T09:42:18.471Z,1.57
2023-04-26T09:46:24.971Z,1.97
2023-04-26T09:50:30.504Z,1.60
2023-04-26T09:54:47.091Z,2.00
2023-04-26T09:59:04.006Z,1.63
2023-04-26T10:03:10.850Z,1.70
2023-04-26T10:07:16.473Z,1.60
2023-04-26T10:11:19.692Z,1.53
2023-04-26T10:15:22.961Z,1.60
2023-04-26T10:19:27.242Z,1.40
2023-04-26T10:23:31.914Z,1.80
2023-04-26T10:27:52.628Z,1.40
2023-04-26T10:32:10.517Z,1.67
2023-04-26T10:36:14.362Z,2.00
2023-04-26T10:40:26.356Z,1.70
2023-04-26T10:44:40.430Z,1.77
2023-04-26T10:48:43.157Z,1.50
2023-04-26T10:53:06.812Z,1.67
2023-04-26T10:57:11.254Z,1.47
2023-04-26T11:01:17.681Z,1.30
2023-04-26T11:05:55.423Z,1.83
2023-04-26T11:10:01.769Z,1.43
2023-04-26T11:14:05.853Z,1.80
2023-04-26T11:18:08.678Z,2.10
2023-04-26T11:22:12.082Z,1.73
2023-04-26T11:26:14.765Z,1.53
2023-04-26T11:30:21.142Z,1.70
2023-04-26T11:34:24.448Z,1.87
2023-04-26T11:38:28.379Z,1.90
2023-04-26T11:42:31.168Z,1.70
2023-04-26T11:46:35.283Z,1.50
2023-04-26T11:50:38.445Z,1.77
2023-04-26T11:54:42.655Z,1.90
2023-04-26T11:58:46.706Z,2.00
2023-04-26T12:02:52.352Z,2.20
2023-04-26T12:06:55.380Z,2.03
2023-04-26T12:11:02.564Z,2.23
2023-04-26T12:15:12.552Z,1.90
2023-04-26T12:19:17.952Z,2.10
2023-04-26T12:23:20.725Z,2.20
2023-04-26T12:27:24.096Z,1.90
2023-04-26T12:31:26.870Z,2.00
2023-04-26T12:35:31.409Z,2.20
2023-04-26T12:39:34.191Z,2.03
2023-04-26T12:43:36.967Z,1.93
2023-04-26T12:47:39.763Z,2.13
2023-04-26T12:51:44.350Z,1.90
2023-04-26T12:55:47.133Z,1.60
2023-04-26T12:59:49.952Z,1.77
2023-04-26T13:03:52.904Z,2.10
2023-04-26T13:07:57.316Z,1.70
2023-04-26T13:11:59.987Z,1.50
2023-04-26T13:16:02.803Z,1.73
2023-04-26T13:20:07.087Z,2.20
2023-04-26T13:24:11.332Z,2.00
2023-04-26T13:28:14.394Z,2.03
2023-04-26T13:32:17.545Z,1.80
2023-04-26T13:36:20.345Z,1.97
2023-04-26T13:40:24.482Z,2.10
2023-04-26T13:44:28.452Z,1.73
2023-04-26T13:48:31.963Z,2.30
2023-04-26T13:52:34.990Z,1.87
2023-04-26T13:56:39.255Z,1.70
2023-04-26T14:00:42.080Z,1.77
2023-04-26T14:04:45.158Z,1.93
2023-04-26T14:08:48.297Z,1.70
2023-04-26T14:12:52.673Z,1.77
2023-04-26T14:16:55.537Z,2.17
2023-04-26T14:20:58.503Z,1.80
2023-04-26T14:25:01.631Z,1.90
2023-04-26T14:29:06.115Z,1.63
2023-04-26T14:33:08.950Z,1.90
2023-04-26T14:37:11.779Z,1.90
2023-04-26T14:41:17.603Z,1.60
2023-04-26T14:45:27.774Z,2.10
2023-04-26T14:49:37.315Z,1.70
2023-04-26T14:53:40.139Z,1.90
2023-04-26T14:57:42.851Z,1.90
2023-04-26T15:01:53.279Z,1.87
2023-04-26T15:05:56.352Z,1.70
2023-04-26T15:09:59.250Z,2.20
2023-04-26T15:14:02.155Z,1.80
2023-04-26T15:18:06.581Z,1.70
2023-04-26T15:22:09.281Z,1.83
2023-04-26T15:26:11.966Z,1.60
2023-04-26T15:30:15.071Z,1.87
2023-04-26T15:34:20.662Z,2.07
2023-04-26T15:38:23.818Z,2.30
2023-04-26T15:42:26.589Z,2.03
2023-04-26T15:46:29.313Z,1.97
2023-04-26T15:50:33.465Z,1.90
2023-04-26T15:54:36.196Z,1.90
2023-04-26T15:58:40.988Z,2.30
2023-04-26T16:02:45.393Z,1.87
2023-04-26T16:06:49.608Z,2.20
2023-04-26T16:10:52.796Z,2.13
2023-04-26T16:14:56.072Z,1.80
2023-04-26T16:18:59.290Z,2.10
2023-04-26T16:23:07.487Z,1.90
2023-04-26T16:27:12.728Z,2.60
2023-04-26T16:31:15.587Z,1.50
2023-04-26T16:35:18.678Z,2.50
2023-04-26T16:39:23.467Z,1.87
2023-04-26T16:43:27.072Z,1.47
2023-04-26T16:47:30.179Z,7.87
2023-04-26T16:51:33.418Z,3.30
2023-04-26T16:55:37.784Z,2.13
2023-04-26T16:59:40.667Z,2.20
2023-04-26T17:03:43.445Z,2.00
2023-04-26T17:07:46.215Z,1.60
2023-04-26T17:11:50.950Z,1.70
2023-04-26T17:15:55.341Z,1.63
2023-04-26T17:20:00.452Z,1.80
2023-04-26T17:24:03.604Z,1.60
2023-04-26T17:28:07.730Z,1.90
2023-04-26T17:32:10.702Z,1.97
2023-04-26T17:36:13.655Z,3.23
2023-04-26T17:40:17.071Z,2.83
2023-04-26T17:44:21.481Z,2.30
2023-04-26T17:48:24.523Z,2.03
2023-04-26T17:52:27.843Z,3.23
2023-04-26T17:56:30.836Z,3.80
2023-04-26T18:00:35.719Z,3.27
2023-04-26T18:04:41.310Z,2.30
2023-04-26T18:08:44.946Z,3.13
2023-04-26T18:12:47.701Z,3.40
2023-04-26T18:16:51.965Z,3.43
2023-04-26T18:20:54.819Z,3.67
2023-04-26T18:24:57.616Z,3.50
2023-04-26T18:29:00.356Z,4.00
2023-04-26T18:33:05.066Z,3.47
2023-04-26T18:37:08.050Z,3.07
2023-04-26T18:41:10.891Z,3.87
2023-04-26T18:45:16.290Z,2.10
2023-04-26T18:49:22.372Z,2.17
2023-04-26T18:53:25.144Z,2.70
2023-04-26T18:57:28.099Z,2.90
2023-04-26T19:01:30.873Z,3.30
2023-04-26T19:05:36.894Z,2.40
2023-04-26T19:09:53.130Z,2.20
2023-04-26T19:13:57.168Z,2.67
2023-04-26T19:18:00.227Z,2.20
2023-04-26T19:22:05.297Z,2.53
2023-04-26T19:26:12.228Z,3.27
2023-04-26T19:30:17.771Z,4.73
2023-04-26T19:34:21.503Z,4.13
2023-04-26T19:38:26.595Z,3.13
2023-04-26T19:42:30.867Z,2.03
2023-04-26T19:46:34.138Z,1.80
2023-04-26T19:50:40.044Z,1.77
2023-04-26T19:54:44.117Z,2.23
2023-04-26T19:58:47.181Z,1.80
2023-04-26T20:02:53.122Z,2.30
2023-04-26T20:06:57.147Z,2.73
2023-04-26T20:11:05.358Z,3.43
2023-04-26T20:15:09.540Z,3.20
2023-04-26T20:19:12.271Z,9.77
2023-04-26T20:23:15.012Z,5.67
2023-04-26T20:27:21.164Z,4.37
2023-04-26T20:31:24.295Z,5.30
2023-04-26T20:35:29.942Z,5.67
2023-04-26T20:39:36.033Z,4.20
2023-04-26T20:43:40.501Z,4.30
2023-04-26T20:47:43.724Z,4.20
2023-04-26T20:51:47.286Z,3.70
2023-04-26T20:55:53.258Z,2.80
2023-04-26T20:59:57.688Z,3.20
2023-04-26T21:04:01.017Z,2.70
2023-04-26T21:08:03.914Z,3.47
2023-04-26T21:12:07.693Z,3.20
2023-04-26T21:16:12.361Z,3.77
2023-04-26T21:20:15.343Z,3.70
2023-04-26T21:24:18.312Z,3.40
2023-04-26T21:28:21.017Z,3.60
2023-04-26T21:32:25.146Z,3.57
2023-04-26T21:36:33.502Z,3.70
2023-04-26T21:40:36.246Z,3.30
2023-04-26T21:44:40.307Z,3.33
2023-04-26T21:48:45.184Z,3.60
2023-04-26T21:52:48.037Z,2.97
2023-04-26T21:56:50.719Z,3.33
2023-04-26T22:00:53.671Z,3.20
2023-04-26T22:05:00.154Z,3.13
2023-04-26T22:09:03.442Z,3.40
2023-04-26T22:13:06.249Z,2.53
2023-04-26T22:17:09.002Z,3.33
2023-04-26T22:21:13.036Z,3.10
2023-04-26T22:25:15.871Z,2.70
2023-04-26T22:29:18.541Z,2.90
2023-04-26T22:33:21.510Z,3.10
2023-04-26T22:37:25.518Z,3.00
2023-04-26T22:41:28.264Z,2.73
2023-04-26T22:45:31.010Z,2.80
2023-04-26T22:49:33.760Z,3.00
2023-04-26T22:53:40.928Z,2.50
2023-04-26T22:57:43.635Z,2.63
2023-04-26T23:01:46.590Z,3.00
2023-04-26T23:05:49.421Z,2.43
2023-04-26T23:09:54.025Z,3.00
2023-04-26T23:13:57.380Z,3.40
2023-04-26T23:18:00.674Z,3.13
2023-04-26T23:22:03.543Z,3.00
2023-04-26T23:26:08.656Z,3.10
2023-04-26T23:30:13.826Z,3.20
2023-04-26T23:34:16.805Z,3.03
2023-04-26T23:38:19.621Z,3.37
2023-04-26T23:42:24.006Z,3.20
2023-04-26T23:46:30.395Z,3.38
2023-04-26T23:50:34.413Z,2.97
2023-04-26T23:54:37.075Z,3.30
2023-04-26T23:58:41.444Z,3.67
